sensor_id;sensor_type;location;lat;lon;timestamp;P1;durP1;ratioP1;P2;durP2;ratioP2
5279;SDS011;2663;53.588;10.010;2023-04-15T00:00:59;6.00;;;4.73;;
5279;SDS011;2663;53.588;10.010;2023-04-15T00:03:26;4.83;;;3.90;;
5279;SDS011;2663;53.588;10.010;2023-04-15T00:05:54;4.47;;;4.07;;
5279;SDS011;2663;53.588;10.010;2023-04-15T00:08:20;7.70;;;5.63;;
5279;SDS011;2663;53.588;10.010;2023-04-15T00:10:47;7.03;;;5.00;;
5279;SDS011;2663;53.588;10.010;2023-04-15T00:13:14;5.93;;;5.27;;
5279;SDS011;2663;53.588;10.010;2023-04-15T00:15:41;7.53;;;5.13;;
5279;SDS011;2663;53.588;10.010;2023-04-15T00:18:08;8.50;;;5.50;;
5279;SDS011;2663;53.588;10.010;2023-04-15T00:20:35;4.53;;;3.77;;
5279;SDS011;2663;53.588;10.010;2023-04-15T00:23:02;12.30;;;7.63;;
5279;SDS011;2663;53.588;10.010;2023-04-15T00:25:29;6.30;;;4.30;;
5279;SDS011;2663;53.588;10.010;2023-04-15T00:27:56;6.30;;;4.60;;
5279;SDS011;2663;53.588;10.010;2023-04-15T00:30:23;4.60;;;4.20;;
5279;SDS011;2663;53.588;10.010;2023-04-15T00:32:51;6.23;;;4.30;;
5279;SDS011;2663;53.588;10.010;2023-04-15T00:35:18;8.07;;;5.07;;
5279;SDS011;2663;53.588;10.010;2023-04-15T00:37:45;5.40;;;4.10;;
5279;SDS011;2663;53.588;10.010;2023-04-15T00:40:12;4.20;;;3.73;;
5279;SDS011;2663;53.588;10.010;2023-04-15T00:42:42;6.50;;;4.87;;
5279;SDS011;2663;53.588;10.010;2023-04-15T00:45:09;4.07;;;3.67;;
5279;SDS011;2663;53.588;10.010;2023-04-15T00:47:36;6.07;;;5.00;;
5279;SDS011;2663;53.588;10.010;2023-04-15T00:50:06;4.07;;;3.67;;
5279;SDS011;2663;53.588;10.010;2023-04-15T00:52:34;5.03;;;4.23;;
5279;SDS011;2663;53.588;10.010;2023-04-15T00:55:01;6.30;;;4.77;;
5279;SDS011;2663;53.588;10.010;2023-04-15T00:57:29;8.00;;;5.50;;
5279;SDS011;2663;53.588;10.010;2023-04-15T00:59:56;6.87;;;4.90;;
5279;SDS011;2663;53.588;10.010;2023-04-15T01:02:23;10.70;;;4.47;;
5279;SDS011;2663;53.588;10.010;2023-04-15T01:04:50;5.70;;;4.60;;
5279;SDS011;2663;53.588;10.010;2023-04-15T01:07:17;4.37;;;3.90;;
5279;SDS011;2663;53.588;10.010;2023-04-15T01:09:44;5.07;;;4.30;;
5279;SDS011;2663;53.588;10.010;2023-04-15T01:12:11;5.27;;;4.00;;
5279;SDS011;2663;53.588;10.010;2023-04-15T01:14:40;5.63;;;4.83;;
5279;SDS011;2663;53.588;10.010;2023-04-15T01:17:07;5.67;;;4.00;;
5279;SDS011;2663;53.588;10.010;2023-04-15T01:19:37;5.57;;;4.60;;
5279;SDS011;2663;53.588;10.010;2023-04-15T01:22:04;5.73;;;4.53;;
5279;SDS011;2663;53.588;10.010;2023-04-15T01:24:31;5.23;;;4.40;;
5279;SDS011;2663;53.588;10.010;2023-04-15T01:26:59;5.53;;;4.43;;
5279;SDS011;2663;53.588;10.010;2023-04-15T01:29:25;5.37;;;4.63;;
5279;SDS011;2663;53.588;10.010;2023-04-15T01:31:53;6.00;;;5.00;;
5279;SDS011;2663;53.588;10.010;2023-04-15T01:34:22;5.50;;;4.80;;
5279;SDS011;2663;53.588;10.010;2023-04-15T01:36:48;8.30;;;5.03;;
5279;SDS011;2663;53.588;10.010;2023-04-15T01:39:15;6.90;;;5.43;;
5279;SDS011;2663;53.588;10.010;2023-04-15T01:41:42;6.50;;;4.57;;
5279;SDS011;2663;53.588;10.010;2023-04-15T01:44:09;6.73;;;4.97;;
5279;SDS011;2663;53.588;10.010;2023-04-15T01:46:36;7.23;;;5.27;;
5279;SDS011;2663;53.588;10.010;2023-04-15T01:49:03;5.00;;;4.50;;
5279;SDS011;2663;53.588;10.010;2023-04-15T01:51:29;6.07;;;4.90;;
5279;SDS011;2663;53.588;10.010;2023-04-15T01:53:57;5.30;;;4.53;;
5279;SDS011;2663;53.588;10.010;2023-04-15T01:56:23;6.10;;;4.70;;
5279;SDS011;2663;53.588;10.010;2023-04-15T01:58:50;6.00;;;5.23;;
5279;SDS011;2663;53.588;10.010;2023-04-15T02:01:17;5.33;;;4.70;;
5279;SDS011;2663;53.588;10.010;2023-04-15T02:03:47;15.17;;;9.60;;
5279;SDS011;2663;53.588;10.010;2023-04-15T02:06:14;11.33;;;7.43;;
5279;SDS011;2663;53.588;10.010;2023-04-15T02:08:41;9.43;;;6.50;;
5279;SDS011;2663;53.588;10.010;2023-04-15T02:11:07;6.60;;;5.30;;
5279;SDS011;2663;53.588;10.010;2023-04-15T02:13:34;10.23;;;7.03;;
5279;SDS011;2663;53.588;10.010;2023-04-15T02:16:01;8.17;;;6.37;;
5279;SDS011;2663;53.588;10.010;2023-04-15T02:18:28;10.07;;;7.13;;
5279;SDS011;2663;53.588;10.010;2023-04-15T02:20:55;16.60;;;9.50;;
5279;SDS011;2663;53.588;10.010;2023-04-15T02:23:24;11.70;;;7.57;;
5279;SDS011;2663;53.588;10.010;2023-04-15T02:25:51;11.53;;;7.30;;
5279;SDS011;2663;53.588;10.010;2023-04-15T02:28:19;13.40;;;7.30;;
5279;SDS011;2663;53.588;10.010;2023-04-15T02:30:47;11.20;;;7.93;;
5279;SDS011;2663;53.588;10.010;2023-04-15T02:33:18;9.03;;;7.10;;
5279;SDS011;2663;53.588;10.010;2023-04-15T02:35:44;8.73;;;6.70;;
5279;SDS011;2663;53.588;10.010;2023-04-15T02:38:11;10.33;;;7.10;;
5279;SDS011;2663;53.588;10.010;2023-04-15T02:40:39;13.53;;;6.93;;
5279;SDS011;2663;53.588;10.010;2023-04-15T02:43:06;12.70;;;7.50;;
5279;SDS011;2663;53.588;10.010;2023-04-15T02:45:32;10.87;;;7.63;;
5279;SDS011;2663;53.588;10.010;2023-04-15T02:47:59;12.27;;;8.20;;
5279;SDS011;2663;53.588;10.010;2023-04-15T02:50:31;11.73;;;8.33;;
5279;SDS011;2663;53.588;10.010;2023-04-15T02:52:58;12.80;;;8.40;;
5279;SDS011;2663;53.588;10.010;2023-04-15T02:55:26;13.60;;;8.90;;
5279;SDS011;2663;53.588;10.010;2023-04-15T02:57:54;16.93;;;8.90;;
5279;SDS011;2663;53.588;10.010;2023-04-15T03:00:20;13.77;;;8.37;;
5279;SDS011;2663;53.588;10.010;2023-04-15T03:02:47;13.47;;;9.07;;
5279;SDS011;2663;53.588;10.010;2023-04-15T03:05:17;13.03;;;9.07;;
5279;SDS011;2663;53.588;10.010;2023-04-15T03:07:44;12.97;;;9.33;;
5279;SDS011;2663;53.588;10.010;2023-04-15T03:10:10;15.50;;;9.53;;
5279;SDS011;2663;53.588;10.010;2023-04-15T03:12:37;13.17;;;9.20;;
5279;SDS011;2663;53.588;10.010;2023-04-15T03:15:04;14.17;;;9.00;;
5279;SDS011;2663;53.588;10.010;2023-04-15T03:17:31;17.60;;;9.60;;
5279;SDS011;2663;53.588;10.010;2023-04-15T03:20:00;15.27;;;8.70;;
5279;SDS011;2663;53.588;10.010;2023-04-15T03:22:28;14.90;;;9.47;;
5279;SDS011;2663;53.588;10.010;2023-04-15T03:24:56;12.80;;;8.97;;
5279;SDS011;2663;53.588;10.010;2023-04-15T03:27:23;15.17;;;9.30;;
5279;SDS011;2663;53.588;10.010;2023-04-15T03:29:50;13.30;;;8.27;;
5279;SDS011;2663;53.588;10.010;2023-04-15T03:32:17;13.40;;;8.80;;
5279;SDS011;2663;53.588;10.010;2023-04-15T03:34:44;14.73;;;9.20;;
5279;SDS011;2663;53.588;10.010;2023-04-15T03:37:10;12.40;;;8.73;;
5279;SDS011;2663;53.588;10.010;2023-04-15T03:39:37;14.30;;;8.90;;
5279;SDS011;2663;53.588;10.010;2023-04-15T03:42:04;15.87;;;10.87;;
5279;SDS011;2663;53.588;10.010;2023-04-15T03:44:31;18.30;;;10.00;;
5279;SDS011;2663;53.588;10.010;2023-04-15T03:46:58;20.90;;;10.80;;
5279;SDS011;2663;53.588;10.010;2023-04-15T03:49:24;15.10;;;10.30;;
5279;SDS011;2663;53.588;10.010;2023-04-15T03:51:51;17.43;;;11.10;;
5279;SDS011;2663;53.588;10.010;2023-04-15T03:54:18;17.53;;;10.70;;
5279;SDS011;2663;53.588;10.010;2023-04-15T03:56:44;14.23;;;9.80;;
5279;SDS011;2663;53.588;10.010;2023-04-15T03:59:11;15.37;;;10.50;;
5279;SDS011;2663;53.588;10.010;2023-04-15T04:01:38;21.83;;;11.77;;
5279;SDS011;2663;53.588;10.010;2023-04-15T04:04:04;17.13;;;11.00;;
5279;SDS011;2663;53.588;10.010;2023-04-15T04:06:32;20.70;;;11.40;;
5279;SDS011;2663;53.588;10.010;2023-04-15T04:08:58;19.47;;;11.20;;
5279;SDS011;2663;53.588;10.010;2023-04-15T04:11:26;17.20;;;10.43;;
5279;SDS011;2663;53.588;10.010;2023-04-15T04:13:53;22.43;;;11.87;;
5279;SDS011;2663;53.588;10.010;2023-04-15T04:16:20;19.27;;;11.20;;
5279;SDS011;2663;53.588;10.010;2023-04-15T04:18:47;20.27;;;11.53;;
5279;SDS011;2663;53.588;10.010;2023-04-15T04:21:13;18.47;;;10.77;;
5279;SDS011;2663;53.588;10.010;2023-04-15T04:23:40;23.00;;;11.67;;
5279;SDS011;2663;53.588;10.010;2023-04-15T04:26:07;19.90;;;11.73;;
5279;SDS011;2663;53.588;10.010;2023-04-15T04:28:33;20.90;;;12.30;;
5279;SDS011;2663;53.588;10.010;2023-04-15T04:31:01;17.80;;;11.73;;
5279;SDS011;2663;53.588;10.010;2023-04-15T04:33:28;24.07;;;13.80;;
5279;SDS011;2663;53.588;10.010;2023-04-15T04:35:54;21.57;;;12.10;;
5279;SDS011;2663;53.588;10.010;2023-04-15T04:38:21;25.20;;;13.73;;
5279;SDS011;2663;53.588;10.010;2023-04-15T04:40:48;24.27;;;13.77;;
5279;SDS011;2663;53.588;10.010;2023-04-15T04:43:14;24.97;;;14.77;;
5279;SDS011;2663;53.588;10.010;2023-04-15T04:45:41;30.00;;;14.50;;
5279;SDS011;2663;53.588;10.010;2023-04-15T04:48:08;27.63;;;15.20;;
5279;SDS011;2663;53.588;10.010;2023-04-15T04:50:35;31.17;;;15.20;;
5279;SDS011;2663;53.588;10.010;2023-04-15T04:53:02;28.60;;;16.13;;
5279;SDS011;2663;53.588;10.010;2023-04-15T04:55:29;29.50;;;16.63;;
5279;SDS011;2663;53.588;10.010;2023-04-15T04:57:57;35.63;;;16.80;;
5279;SDS011;2663;53.588;10.010;2023-04-15T05:00:23;27.90;;;17.30;;
5279;SDS011;2663;53.588;10.010;2023-04-15T05:02:50;34.40;;;18.40;;
5279;SDS011;2663;53.588;10.010;2023-04-15T05:05:17;36.20;;;17.97;;
5279;SDS011;2663;53.588;10.010;2023-04-15T05:07:44;32.73;;;19.03;;
5279;SDS011;2663;53.588;10.010;2023-04-15T05:10:10;35.13;;;19.57;;
5279;SDS011;2663;53.588;10.010;2023-04-15T05:12:37;39.23;;;20.13;;
5279;SDS011;2663;53.588;10.010;2023-04-15T05:15:04;43.70;;;20.17;;
5279;SDS011;2663;53.588;10.010;2023-04-15T05:17:31;35.13;;;18.63;;
5279;SDS011;2663;53.588;10.010;2023-04-15T05:20:01;44.03;;;21.83;;
5279;SDS011;2663;53.588;10.010;2023-04-15T05:22:28;46.37;;;20.33;;
5279;SDS011;2663;53.588;10.010;2023-04-15T05:24:55;40.80;;;21.60;;
5279;SDS011;2663;53.588;10.010;2023-04-15T05:27:21;41.63;;;22.67;;
5279;SDS011;2663;53.588;10.010;2023-04-15T05:29:49;46.23;;;22.27;;
5279;SDS011;2663;53.588;10.010;2023-04-15T05:32:16;47.10;;;22.00;;
5279;SDS011;2663;53.588;10.010;2023-04-15T05:34:42;47.87;;;21.37;;
5279;SDS011;2663;53.588;10.010;2023-04-15T05:37:09;42.17;;;21.80;;
5279;SDS011;2663;53.588;10.010;2023-04-15T05:39:36;45.63;;;22.73;;
5279;SDS011;2663;53.588;10.010;2023-04-15T05:42:03;38.07;;;16.60;;
5279;SDS011;2663;53.588;10.010;2023-04-15T05:44:31;49.50;;;23.10;;
5279;SDS011;2663;53.588;10.010;2023-04-15T05:46:58;48.50;;;23.47;;
5279;SDS011;2663;53.588;10.010;2023-04-15T05:49:24;42.90;;;20.87;;
5279;SDS011;2663;53.588;10.010;2023-04-15T05:51:51;38.33;;;20.40;;
5279;SDS011;2663;53.588;10.010;2023-04-15T05:54:18;52.10;;;22.10;;
5279;SDS011;2663;53.588;10.010;2023-04-15T05:56:45;37.63;;;20.30;;
5279;SDS011;2663;53.588;10.010;2023-04-15T05:59:12;38.57;;;21.17;;
5279;SDS011;2663;53.588;10.010;2023-04-15T06:01:38;41.40;;;21.33;;
5279;SDS011;2663;53.588;10.010;2023-04-15T06:04:05;34.20;;;19.63;;
5279;SDS011;2663;53.588;10.010;2023-04-15T06:06:32;42.50;;;21.40;;
5279;SDS011;2663;53.588;10.010;2023-04-15T06:08:59;35.60;;;20.43;;
5279;SDS011;2663;53.588;10.010;2023-04-15T06:11:26;36.90;;;21.63;;
5279;SDS011;2663;53.588;10.010;2023-04-15T06:13:53;34.47;;;19.23;;
5279;SDS011;2663;53.588;10.010;2023-04-15T06:16:20;38.80;;;19.43;;
5279;SDS011;2663;53.588;10.010;2023-04-15T06:18:48;34.80;;;20.27;;
5279;SDS011;2663;53.588;10.010;2023-04-15T06:21:14;38.93;;;22.20;;
5279;SDS011;2663;53.588;10.010;2023-04-15T06:23:41;36.30;;;20.40;;
5279;SDS011;2663;53.588;10.010;2023-04-15T06:26:08;39.47;;;20.73;;
5279;SDS011;2663;53.588;10.010;2023-04-15T06:28:34;43.50;;;21.77;;
5279;SDS011;2663;53.588;10.010;2023-04-15T06:31:01;47.27;;;24.80;;
5279;SDS011;2663;53.588;10.010;2023-04-15T06:33:28;43.13;;;22.97;;
5279;SDS011;2663;53.588;10.010;2023-04-15T06:35:55;43.37;;;22.63;;
5279;SDS011;2663;53.588;10.010;2023-04-15T06:38:21;43.37;;;23.80;;
5279;SDS011;2663;53.588;10.010;2023-04-15T06:40:48;48.20;;;25.70;;
5279;SDS011;2663;53.588;10.010;2023-04-15T06:43:15;50.57;;;25.30;;
5279;SDS011;2663;53.588;10.010;2023-04-15T06:45:41;43.27;;;24.60;;
5279;SDS011;2663;53.588;10.010;2023-04-15T06:48:08;47.80;;;24.90;;
5279;SDS011;2663;53.588;10.010;2023-04-15T06:50:35;48.83;;;26.73;;
5279;SDS011;2663;53.588;10.010;2023-04-15T06:53:01;49.20;;;26.57;;
5279;SDS011;2663;53.588;10.010;2023-04-15T06:55:28;45.13;;;25.00;;
5279;SDS011;2663;53.588;10.010;2023-04-15T06:57:56;51.53;;;26.57;;
5279;SDS011;2663;53.588;10.010;2023-04-15T07:00:23;48.73;;;25.17;;
5279;SDS011;2663;53.588;10.010;2023-04-15T07:02:50;47.87;;;26.53;;
5279;SDS011;2663;53.588;10.010;2023-04-15T07:05:17;50.70;;;28.73;;
5279;SDS011;2663;53.588;10.010;2023-04-15T07:07:45;66.23;;;28.23;;
5279;SDS011;2663;53.588;10.010;2023-04-15T07:10:11;58.27;;;28.40;;
5279;SDS011;2663;53.588;10.010;2023-04-15T07:12:39;62.73;;;29.97;;
5279;SDS011;2663;53.588;10.010;2023-04-15T07:15:07;55.00;;;26.80;;
5279;SDS011;2663;53.588;10.010;2023-04-15T07:17:33;51.13;;;28.83;;
5279;SDS011;2663;53.588;10.010;2023-04-15T07:20:00;51.90;;;27.73;;
5279;SDS011;2663;53.588;10.010;2023-04-15T07:22:27;55.37;;;29.07;;
5279;SDS011;2663;53.588;10.010;2023-04-15T07:24:54;56.50;;;27.37;;
5279;SDS011;2663;53.588;10.010;2023-04-15T07:27:21;57.17;;;27.57;;
5279;SDS011;2663;53.588;10.010;2023-04-15T07:29:47;60.77;;;28.87;;
5279;SDS011;2663;53.588;10.010;2023-04-15T07:32:14;64.00;;;30.30;;
5279;SDS011;2663;53.588;10.010;2023-04-15T07:34:41;56.37;;;28.47;;
5279;SDS011;2663;53.588;10.010;2023-04-15T07:37:08;60.93;;;29.77;;
5279;SDS011;2663;53.588;10.010;2023-04-15T07:39:35;54.60;;;28.30;;
5279;SDS011;2663;53.588;10.010;2023-04-15T07:42:02;60.30;;;29.07;;
5279;SDS011;2663;53.588;10.010;2023-04-15T07:44:29;55.20;;;28.57;;
5279;SDS011;2663;53.588;10.010;2023-04-15T07:46:56;62.60;;;29.93;;
5279;SDS011;2663;53.588;10.010;2023-04-15T07:49:23;54.80;;;27.97;;
5279;SDS011;2663;53.588;10.010;2023-04-15T07:51:49;62.93;;;29.30;;
5279;SDS011;2663;53.588;10.010;2023-04-15T07:54:16;70.03;;;30.70;;
5279;SDS011;2663;53.588;10.010;2023-04-15T07:56:43;58.40;;;30.27;;
5279;SDS011;2663;53.588;10.010;2023-04-15T07:59:09;58.13;;;30.50;;
5279;SDS011;2663;53.588;10.010;2023-04-15T08:01:36;60.23;;;29.40;;
5279;SDS011;2663;53.588;10.010;2023-04-15T08:04:04;79.80;;;34.00;;
5279;SDS011;2663;53.588;10.010;2023-04-15T08:06:30;68.50;;;32.63;;
5279;SDS011;2663;53.588;10.010;2023-04-15T08:08:58;74.20;;;34.17;;
5279;SDS011;2663;53.588;10.010;2023-04-15T08:11:25;68.67;;;32.40;;
5279;SDS011;2663;53.588;10.010;2023-04-15T08:13:52;66.33;;;32.03;;
5279;SDS011;2663;53.588;10.010;2023-04-15T08:18:48;63.97;;;34.00;;
5279;SDS011;2663;53.588;10.010;2023-04-15T08:21:16;73.63;;;32.47;;
5279;SDS011;2663;53.588;10.010;2023-04-15T08:23:44;60.27;;;30.90;;
5279;SDS011;2663;53.588;10.010;2023-04-15T08:26:12;70.63;;;33.67;;
5279;SDS011;2663;53.588;10.010;2023-04-15T08:28:39;75.23;;;31.27;;
5279;SDS011;2663;53.588;10.010;2023-04-15T08:31:07;71.33;;;33.60;;
5279;SDS011;2663;53.588;10.010;2023-04-15T08:33:34;76.73;;;34.90;;
5279;SDS011;2663;53.588;10.010;2023-04-15T08:36:01;63.27;;;33.30;;
5279;SDS011;2663;53.588;10.010;2023-04-15T08:38:28;68.90;;;32.40;;
5279;SDS011;2663;53.588;10.010;2023-04-15T08:40:56;56.90;;;29.20;;
5279;SDS011;2663;53.588;10.010;2023-04-15T08:43:31;57.17;;;31.40;;
5279;SDS011;2663;53.588;10.010;2023-04-15T08:46:00;57.40;;;30.50;;
5279;SDS011;2663;53.588;10.010;2023-04-15T08:48:31;55.80;;;31.40;;
5279;SDS011;2663;53.588;10.010;2023-04-15T08:50:59;65.37;;;31.97;;
5279;SDS011;2663;53.588;10.010;2023-04-15T08:53:27;57.60;;;31.37;;
5279;SDS011;2663;53.588;10.010;2023-04-15T08:55:54;64.80;;;32.10;;
5279;SDS011;2663;53.588;10.010;2023-04-15T08:58:23;64.87;;;34.37;;
5279;SDS011;2663;53.588;10.010;2023-04-15T09:00:50;65.80;;;31.67;;
5279;SDS011;2663;53.588;10.010;2023-04-15T09:03:17;51.13;;;28.83;;
5279;SDS011;2663;53.588;10.010;2023-04-15T09:05:44;62.03;;;31.93;;
5279;SDS011;2663;53.588;10.010;2023-04-15T09:08:12;69.00;;;33.27;;
5279;SDS011;2663;53.588;10.010;2023-04-15T09:10:38;74.73;;;35.43;;
5279;SDS011;2663;53.588;10.010;2023-04-15T09:13:05;67.50;;;33.60;;
5279;SDS011;2663;53.588;10.010;2023-04-15T09:15:32;58.70;;;32.07;;
5279;SDS011;2663;53.588;10.010;2023-04-15T09:18:00;76.23;;;34.03;;
5279;SDS011;2663;53.588;10.010;2023-04-15T09:20:27;67.47;;;31.73;;
5279;SDS011;2663;53.588;10.010;2023-04-15T09:22:53;62.17;;;32.50;;
5279;SDS011;2663;53.588;10.010;2023-04-15T09:27:55;65.60;;;34.30;;
5279;SDS011;2663;53.588;10.010;2023-04-15T09:30:23;72.23;;;33.50;;
5279;SDS011;2663;53.588;10.010;2023-04-15T09:32:55;57.60;;;32.97;;
5279;SDS011;2663;53.588;10.010;2023-04-15T09:35:27;65.07;;;32.37;;
5279;SDS011;2663;53.588;10.010;2023-04-15T09:38:04;60.23;;;33.20;;
5279;SDS011;2663;53.588;10.010;2023-04-15T09:40:36;58.00;;;31.60;;
5279;SDS011;2663;53.588;10.010;2023-04-15T09:43:04;66.63;;;33.27;;
5279;SDS011;2663;53.588;10.010;2023-04-15T09:45:32;61.97;;;31.20;;
5279;SDS011;2663;53.588;10.010;2023-04-15T09:48:15;61.77;;;31.60;;
5279;SDS011;2663;53.588;10.010;2023-04-15T09:50:46;62.20;;;30.23;;
5279;SDS011;2663;53.588;10.010;2023-04-15T09:53:16;60.60;;;31.20;;
5279;SDS011;2663;53.588;10.010;2023-04-15T09:55:45;65.77;;;33.27;;
5279;SDS011;2663;53.588;10.010;2023-04-15T09:58:18;58.93;;;29.17;;
5279;SDS011;2663;53.588;10.010;2023-04-15T10:00:46;59.50;;;30.03;;
5279;SDS011;2663;53.588;10.010;2023-04-15T10:03:19;57.43;;;28.70;;
5279;SDS011;2663;53.588;10.010;2023-04-15T10:05:48;58.43;;;28.87;;
5279;SDS011;2663;53.588;10.010;2023-04-15T10:08:16;61.67;;;28.70;;
5279;SDS011;2663;53.588;10.010;2023-04-15T10:10:46;51.07;;;29.67;;
5279;SDS011;2663;53.588;10.010;2023-04-15T10:13:13;52.40;;;27.37;;
5279;SDS011;2663;53.588;10.010;2023-04-15T10:15:44;48.40;;;27.57;;
5279;SDS011;2663;53.588;10.010;2023-04-15T10:18:17;53.63;;;30.30;;
5279;SDS011;2663;53.588;10.010;2023-04-15T10:20:47;58.93;;;28.10;;
5279;SDS011;2663;53.588;10.010;2023-04-15T10:23:14;46.80;;;25.23;;
5279;SDS011;2663;53.588;10.010;2023-04-15T10:25:41;42.53;;;25.77;;
5279;SDS011;2663;53.588;10.010;2023-04-15T10:28:08;50.73;;;24.00;;
5279;SDS011;2663;53.588;10.010;2023-04-15T10:30:36;51.43;;;24.57;;
5279;SDS011;2663;53.588;10.010;2023-04-15T10:33:03;43.10;;;24.70;;
5279;SDS011;2663;53.588;10.010;2023-04-15T10:35:31;47.10;;;25.23;;
5279;SDS011;2663;53.588;10.010;2023-04-15T10:38:01;41.57;;;23.47;;
5279;SDS011;2663;53.588;10.010;2023-04-15T10:40:48;39.70;;;22.80;;
5279;SDS011;2663;53.588;10.010;2023-04-15T10:43:23;44.93;;;23.37;;
5279;SDS011;2663;53.588;10.010;2023-04-15T10:45:52;43.17;;;24.40;;
5279;SDS011;2663;53.588;10.010;2023-04-15T10:48:19;35.10;;;20.07;;
5279;SDS011;2663;53.588;10.010;2023-04-15T10:50:55;28.87;;;18.37;;
5279;SDS011;2663;53.588;10.010;2023-04-15T10:53:26;34.47;;;19.33;;
5279;SDS011;2663;53.588;10.010;2023-04-15T10:55:54;34.33;;;20.10;;
5279;SDS011;2663;53.588;10.010;2023-04-15T10:58:23;27.70;;;17.50;;
5279;SDS011;2663;53.588;10.010;2023-04-15T11:00:51;31.90;;;18.83;;
5279;SDS011;2663;53.588;10.010;2023-04-15T11:03:33;23.37;;;14.97;;
5279;SDS011;2663;53.588;10.010;2023-04-15T11:06:03;24.13;;;14.57;;
5279;SDS011;2663;53.588;10.010;2023-04-15T11:12:03;20.40;;;12.73;;
5279;SDS011;2663;53.588;10.010;2023-04-15T11:14:29;24.57;;;12.53;;
5279;SDS011;2663;53.588;10.010;2023-04-15T11:16:59;23.00;;;12.10;;
5279;SDS011;2663;53.588;10.010;2023-04-15T11:19:25;23.43;;;12.60;;
5279;SDS011;2663;53.588;10.010;2023-04-15T11:22:09;17.77;;;11.07;;
5279;SDS011;2663;53.588;10.010;2023-04-15T11:24:45;20.07;;;11.50;;
5279;SDS011;2663;53.588;10.010;2023-04-15T11:27:20;18.17;;;11.27;;
5279;SDS011;2663;53.588;10.010;2023-04-15T11:29:48;16.00;;;11.37;;
5279;SDS011;2663;53.588;10.010;2023-04-15T11:32:15;16.13;;;11.23;;
5279;SDS011;2663;53.588;10.010;2023-04-15T11:34:44;16.57;;;11.10;;
5279;SDS011;2663;53.588;10.010;2023-04-15T11:37:11;17.80;;;11.03;;
5279;SDS011;2663;53.588;10.010;2023-04-15T11:39:38;18.73;;;11.10;;
5279;SDS011;2663;53.588;10.010;2023-04-15T11:42:15;12.80;;;8.90;;
5279;SDS011;2663;53.588;10.010;2023-04-15T11:44:42;14.90;;;9.97;;
5279;SDS011;2663;53.588;10.010;2023-04-15T11:47:21;16.20;;;11.57;;
5279;SDS011;2663;53.588;10.010;2023-04-15T11:49:48;19.90;;;10.83;;
5279;SDS011;2663;53.588;10.010;2023-04-15T11:52:15;16.27;;;11.07;;
5279;SDS011;2663;53.588;10.010;2023-04-15T11:54:42;14.13;;;11.10;;
5279;SDS011;2663;53.588;10.010;2023-04-15T11:57:09;16.90;;;10.90;;
5279;SDS011;2663;53.588;10.010;2023-04-15T11:59:42;19.53;;;12.57;;
5279;SDS011;2663;53.588;10.010;2023-04-15T12:02:11;20.90;;;11.40;;
5279;SDS011;2663;53.588;10.010;2023-04-15T12:04:38;15.43;;;10.37;;
5279;SDS011;2663;53.588;10.010;2023-04-15T12:07:05;15.37;;;9.70;;
5279;SDS011;2663;53.588;10.010;2023-04-15T12:09:36;18.60;;;10.70;;
5279;SDS011;2663;53.588;10.010;2023-04-15T12:12:03;17.80;;;11.30;;
5279;SDS011;2663;53.588;10.010;2023-04-15T12:14:30;20.03;;;12.90;;
5279;SDS011;2663;53.588;10.010;2023-04-15T12:17:02;18.67;;;11.87;;
5279;SDS011;2663;53.588;10.010;2023-04-15T12:19:37;18.90;;;12.00;;
5279;SDS011;2663;53.588;10.010;2023-04-15T12:22:07;17.20;;;10.70;;
5279;SDS011;2663;53.588;10.010;2023-04-15T12:24:35;17.33;;;11.10;;
5279;SDS011;2663;53.588;10.010;2023-04-15T12:27:03;17.80;;;10.30;;
5279;SDS011;2663;53.588;10.010;2023-04-15T12:29:35;10.97;;;8.90;;
5279;SDS011;2663;53.588;10.010;2023-04-15T12:32:05;13.07;;;9.37;;
5279;SDS011;2663;53.588;10.010;2023-04-15T12:34:43;15.90;;;10.73;;
5279;SDS011;2663;53.588;10.010;2023-04-15T12:37:11;17.87;;;10.47;;
5279;SDS011;2663;53.588;10.010;2023-04-15T12:39:40;13.50;;;9.43;;
5279;SDS011;2663;53.588;10.010;2023-04-15T12:42:08;15.70;;;9.90;;
5279;SDS011;2663;53.588;10.010;2023-04-15T12:44:35;14.27;;;10.40;;
5279;SDS011;2663;53.588;10.010;2023-04-15T12:47:03;12.10;;;8.27;;
5279;SDS011;2663;53.588;10.010;2023-04-15T12:49:30;18.90;;;9.80;;
5279;SDS011;2663;53.588;10.010;2023-04-15T12:51:58;19.10;;;10.40;;
5279;SDS011;2663;53.588;10.010;2023-04-15T12:54:26;15.37;;;10.10;;
5279;SDS011;2663;53.588;10.010;2023-04-15T12:56:54;12.03;;;9.53;;
5279;SDS011;2663;53.588;10.010;2023-04-15T12:59:21;16.57;;;10.37;;
5279;SDS011;2663;53.588;10.010;2023-04-15T13:01:49;14.07;;;9.83;;
5279;SDS011;2663;53.588;10.010;2023-04-15T13:04:17;18.93;;;11.50;;
5279;SDS011;2663;53.588;10.010;2023-04-15T13:06:45;18.87;;;11.40;;
5279;SDS011;2663;53.588;10.010;2023-04-15T13:09:12;13.60;;;9.90;;
5279;SDS011;2663;53.588;10.010;2023-04-15T13:11:39;20.23;;;11.17;;
5279;SDS011;2663;53.588;10.010;2023-04-15T13:14:06;17.17;;;11.17;;
5279;SDS011;2663;53.588;10.010;2023-04-15T13:16:34;20.83;;;10.87;;
5279;SDS011;2663;53.588;10.010;2023-04-15T13:19:02;15.27;;;11.10;;
5279;SDS011;2663;53.588;10.010;2023-04-15T13:21:29;13.73;;;10.20;;
5279;SDS011;2663;53.588;10.010;2023-04-15T13:24:00;12.70;;;10.10;;
5279;SDS011;2663;53.588;10.010;2023-04-15T13:26:27;13.00;;;9.50;;
5279;SDS011;2663;53.588;10.010;2023-04-15T13:28:54;15.33;;;8.60;;
5279;SDS011;2663;53.588;10.010;2023-04-15T13:31:21;13.97;;;9.70;;
5279;SDS011;2663;53.588;10.010;2023-04-15T13:33:48;13.00;;;9.80;;
5279;SDS011;2663;53.588;10.010;2023-04-15T13:36:14;14.10;;;8.50;;
5279;SDS011;2663;53.588;10.010;2023-04-15T13:38:41;14.23;;;8.70;;
5279;SDS011;2663;53.588;10.010;2023-04-15T13:41:08;13.10;;;9.27;;
5279;SDS011;2663;53.588;10.010;2023-04-15T13:43:35;16.10;;;9.83;;
5279;SDS011;2663;53.588;10.010;2023-04-15T13:46:01;14.10;;;9.53;;
5279;SDS011;2663;53.588;10.010;2023-04-15T13:48:28;13.50;;;10.20;;
5279;SDS011;2663;53.588;10.010;2023-04-15T13:50:55;10.27;;;8.50;;
5279;SDS011;2663;53.588;10.010;2023-04-15T13:53:22;11.33;;;8.30;;
5279;SDS011;2663;53.588;10.010;2023-04-15T13:56:05;13.70;;;6.90;;
5279;SDS011;2663;53.588;10.010;2023-04-15T13:58:32;10.10;;;7.17;;
5279;SDS011;2663;53.588;10.010;2023-04-15T14:00:59;13.77;;;8.33;;
5279;SDS011;2663;53.588;10.010;2023-04-15T14:03:29;16.30;;;8.67;;
5279;SDS011;2663;53.588;10.010;2023-04-15T14:05:56;10.90;;;7.63;;
5279;SDS011;2663;53.588;10.010;2023-04-15T14:08:23;9.60;;;7.33;;
5279;SDS011;2663;53.588;10.010;2023-04-15T14:10:50;10.60;;;7.57;;
5279;SDS011;2663;53.588;10.010;2023-04-15T14:13:17;14.03;;;7.27;;
5279;SDS011;2663;53.588;10.010;2023-04-15T14:15:44;10.70;;;7.40;;
5279;SDS011;2663;53.588;10.010;2023-04-15T14:18:11;11.47;;;7.73;;
5279;SDS011;2663;53.588;10.010;2023-04-15T14:20:38;13.53;;;8.23;;
5279;SDS011;2663;53.588;10.010;2023-04-15T14:23:05;9.90;;;7.83;;
5279;SDS011;2663;53.588;10.010;2023-04-15T14:25:31;12.10;;;8.83;;
5279;SDS011;2663;53.588;10.010;2023-04-15T14:27:59;12.20;;;8.17;;
5279;SDS011;2663;53.588;10.010;2023-04-15T14:30:27;14.03;;;9.00;;
5279;SDS011;2663;53.588;10.010;2023-04-15T14:32:54;10.60;;;8.33;;
5279;SDS011;2663;53.588;10.010;2023-04-15T14:35:21;11.67;;;8.87;;
5279;SDS011;2663;53.588;10.010;2023-04-15T14:37:49;14.20;;;8.93;;
5279;SDS011;2663;53.588;10.010;2023-04-15T14:40:16;15.70;;;8.17;;
5279;SDS011;2663;53.588;10.010;2023-04-15T14:42:45;13.20;;;8.43;;
5279;SDS011;2663;53.588;10.010;2023-04-15T14:45:12;9.97;;;7.70;;
5279;SDS011;2663;53.588;10.010;2023-04-15T14:47:38;13.73;;;9.57;;
5279;SDS011;2663;53.588;10.010;2023-04-15T14:50:06;12.37;;;8.00;;
5279;SDS011;2663;53.588;10.010;2023-04-15T14:52:33;10.80;;;8.10;;